Time;durP1;ratioP1;P1;durP2;ratioP2;P2;SDS_P1;SDS_P2;PMS_P1;PMS_P2;Temp;Humidity;BMP_temperature;BMP_pressure;BME280_temperature;BME280_humidity;BME280_pressure;Samples;Min_cycle;Max_cycle;Signal;HPM_P1;HPM_P2
2021/01/27 00:00:25;;;;;;;11.53;7.28;;;;;;;1.81;67.52;99000.27;1767941;81;21136;-64
2021/01/27 00:02:53;;;;;;;11.55;7.83;;;;;;;1.80;67.40;98999.96;1796145;79;21559;-72
2021/01/27 00:05:28;;;;;;;10.58;8.05;;;;;;;1.77;67.50;99000.91;1772326;79;21069;-73
2021/01/27 00:07:55;;;;;;;9.55;7.55;;;;;;;1.75;67.51;98992.64;1767930;81;21022;-68
2021/01/27 00:10:25;;;;;;;16.27;9.23;;;;;;;1.74;67.60;99001.61;1767741;81;21033;-67
2021/01/27 00:12:52;;;;;;;10.45;7.50;;;;;;;1.73;67.64;98997.33;1768394;79;21140;-69
2021/01/27 00:15:26;;;;;;;11.10;6.80;;;;;;;1.73;67.53;98989.88;1768184;81;21909;-69
2021/01/27 00:17:54;;;;;;;10.90;8.28;;;;;;;1.70;67.50;99000.41;1775767;79;21596;-66
2021/01/27 00:20:23;;;;;;;8.65;6.15;;;;;;;1.72;67.62;98998.89;1777012;80;21052;-68
2021/01/27 00:22:52;;;;;;;10.58;7.00;;;;;;;1.70;67.54;98993.78;1781759;79;21142;-68
2021/01/27 00:25:24;;;;;;;11.55;6.67;;;;;;;1.69;67.58;98998.78;1777779;80;21147;-67
2021/01/27 00:27:51;;;;;;;9.93;7.35;;;;;;;1.69;67.51;99000.10;1775309;80;21197;-73
2021/01/27 00:30:25;;;;;;;11.83;8.23;;;;;;;1.69;67.56;99000.61;1822329;78;21557;-69
2021/01/27 00:32:54;;;;;;;11.25;7.47;;;;;;;1.68;67.63;99002.95;1803762;79;21543;-68
2021/01/27 00:35:32;;;;;;;14.40;8.63;;;;;;;1.68;67.52;99009.58;1803171;79;21176;-67
2021/01/27 00:38:01;;;;;;;9.60;7.67;;;;;;;1.65;67.49;98988.30;1771902;81;21105;-68
2021/01/27 00:40:28;;;;;;;11.15;8.03;;;;;;;1.64;67.50;98989.82;1771907;81;22268;-67
2021/01/27 00:42:56;;;;;;;12.82;7.62;;;;;;;1.62;67.61;98982.10;1777262;79;21116;-71
2021/01/27 00:45:24;;;;;;;11.65;7.92;;;;;;;1.59;67.61;98974.55;1776274;80;21013;-68
2021/01/27 00:47:51;;;;;;;8.38;6.95;;;;;;;1.56;67.65;98984.77;1777825;79;21120;-68
2021/01/27 00:50:19;;;;;;;10.15;7.92;;;;;;;1.53;67.71;98971.95;1777159;80;21166;-68
2021/01/27 00:52:48;;;;;;;13.03;8.60;;;;;;;1.50;67.91;98970.51;1780329;79;22119;-70
2021/01/27 00:55:26;;;;;;;13.18;8.70;;;;;;;1.49;67.99;98976.83;1776279;80;21646;-69
2021/01/27 00:57:54;;;;;;;10.43;7.65;;;;;;;1.47;68.12;98973.59;1810625;78;20965;-69
2021/01/27 01:00:32;;;;;;;11.08;8.75;;;;;;;1.47;68.17;98964.31;1792132;79;20988;-69
2021/01/27 01:03:03;;;;;;;10.60;7.12;;;;;;;1.47;68.26;98970.13;1789223;80;21112;-70
2021/01/27 01:05:38;;;;;;;13.83;8.85;;;;;;;1.47;68.29;98964.31;1797873;78;21485;-70
2021/01/27 01:08:06;;;;;;;11.57;8.55;;;;;;;1.45;68.43;98967.67;1769642;80;21019;-71
2021/01/27 01:10:44;;;;;;;14.65;8.98;;;;;;;1.44;68.54;98962.60;1777698;80;21017;-70
2021/01/27 01:13:15;;;;;;;7.72;6.67;;;;;;;1.43;68.64;98969.73;1765154;80;21112;-69
2021/01/27 01:15:43;;;;;;;11.83;7.85;;;;;;;1.43;68.67;98978.19;1793463;79;21684;-69
2021/01/27 01:18:11;;;;;;;11.05;8.23;;;;;;;1.42;68.78;98971.26;1784097;79;23509;-69
2021/01/27 01:20:40;;;;;;;11.35;7.35;;;;;;;1.41;68.85;98969.63;1762463;80;21152;-68
2021/01/27 01:23:10;;;;;;;13.72;8.70;;;;;;;1.40;68.92;98974.61;1760563;80;21140;-70
2021/01/27 01:25:37;;;;;;;12.73;8.75;;;;;;;1.38;69.01;98957.63;1813498;79;21197;-69
2021/01/27 01:28:07;;;;;;;10.05;7.25;;;;;;;1.39;68.98;98964.52;1807842;79;21176;-70
2021/01/27 01:30:38;;;;;;;13.45;9.58;;;;;;;1.38;69.11;98964.25;1804942;79;22146;-70
2021/01/27 01:33:19;;;;;;;13.80;9.75;;;;;;;1.38;69.14;98966.89;1774640;79;21125;-68
2021/01/27 01:35:46;;;;;;;13.03;9.05;;;;;;;1.38;69.18;98958.13;1773663;79;21219;-75
2021/01/27 01:38:15;;;;;;;12.23;8.05;;;;;;;1.40;69.16;98962.69;1765699;80;21220;-73
2021/01/27 01:40:47;;;;;;;14.53;8.85;;;;;;;1.38;69.17;98962.92;1781524;79;21171;-72
2021/01/27 01:43:30;;;;;;;12.78;9.63;;;;;;;1.38;69.15;98948.86;1767984;81;21369;-73
2021/01/27 01:46:04;;;;;;;12.80;9.73;;;;;;;1.38;69.21;98939.08;1767509;81;21168;-72
2021/01/27 01:48:58;;;;;;;12.75;10.40;;;;;;;1.40;69.07;98938.34;1768664;81;21095;-71
2021/01/27 01:51:46;;;;;;;9.63;7.03;;;;;;;1.40;69.12;98940.98;1794980;79;21149;-68
2021/01/27 01:54:30;;;;;;;12.40;9.15;;;;;;;1.43;69.16;98933.97;1768382;81;21164;-70
2021/01/27 01:57:00;;;;;;;11.68;8.48;;;;;;;1.43;69.17;98932.64;1768065;79;21156;-71
2021/01/27 01:59:30;;;;;;;11.88;8.60;;;;;;;1.44;69.21;98944.06;1771546;79;21534;-69
2021/01/27 02:02:03;;;;;;;12.82;8.88;;;;;;;1.41;69.18;98940.48;1768030;81;21014;-69
2021/01/27 02:04:39;;;;;;;13.28;9.65;;;;;;;1.41;69.24;98929.89;1749027;82;21936;-70
2021/01/27 02:07:06;;;;;;;16.52;10.98;;;;;;;1.40;69.23;98936.20;1773811;79;21120;-69
2021/01/27 02:09:34;;;;;;;11.60;8.38;;;;;;;1.35;69.28;98935.50;1777815;79;21376;-70
2021/01/27 02:12:34;;;;;;;13.65;9.08;;;;;;;1.35;69.38;98939.98;1767984;79;21184;-70
2021/01/27 02:15:29;;;;;;;11.65;8.45;;;;;;;1.34;69.46;98936.55;1744889;82;21149;-72
2021/01/27 02:18:45;;;;;;;10.95;9.18;;;;;;;1.34;69.46;98926.47;1756475;79;21195;-70
2021/01/27 02:21:44;;;;;;;10.28;7.33;;;;;;;1.30;69.61;98930.84;1801736;79;21140;-70
2021/01/27 02:24:51;;;;;;;11.12;8.53;;;;;;;1.29;69.73;98925.26;1808352;79;21351;-71
2021/01/27 02:27:33;;;;;;;11.50;8.30;;;;;;;1.29;69.76;98927.91;1802992;79;21195;-71
2021/01/27 02:30:36;;;;;;;9.60;7.20;;;;;;;1.29;69.83;98927.91;1790381;79;21045;-70
2021/01/27 02:33:34;;;;;;;14.45;8.25;;;;;;;1.31;69.80;98934.30;1810675;79;20994;-71
2021/01/27 02:36:16;;;;;;;12.93;8.67;;;;;;;1.31;69.87;98932.47;1806506;79;21128;-71
2021/01/27 02:39:01;;;;;;;13.93;10.18;;;;;;;1.34;69.84;98929.94;1776004;80;22132;-69
2021/01/27 02:41:36;;;;;;;13.80;9.13;;;;;;;1.36;69.92;98937.14;1800592;79;21041;-70
2021/01/27 02:44:09;;;;;;;12.73;9.08;;;;;;;1.35;69.76;98927.56;1776403;80;21674;-71
2021/01/27 02:46:42;;;;;;;14.57;8.87;;;;;;;1.37;69.85;98926.03;1802439;79;21121;-70
2021/01/27 02:49:35;;;;;;;10.00;7.70;;;;;;;1.36;69.90;98926.55;1763037;80;21168;-68
2021/01/27 02:52:21;;;;;;;14.87;10.50;;;;;;;1.35;69.92;98927.56;1802804;79;21209;-70
2021/01/27 02:55:06;;;;;;;12.23;9.33;;;;;;;1.37;70.02;98935.30;1748226;80;21140;-72
2021/01/27 02:57:59;;;;;;;11.00;7.60;;;;;;;1.36;70.03;98929.70;1775848;80;21172;-70
2021/01/27 03:00:31;;;;;;;13.95;9.58;;;;;;;1.34;70.13;98935.73;1745122;80;25165;-70
2021/01/27 03:03:19;;;;;;;13.85;10.75;;;;;;;1.29;70.30;98933.20;1787802;80;21146;-69
2021/01/27 03:05:50;;;;;;;13.75;8.58;;;;;;;1.29;70.39;98937.69;1808260;79;21266;-69
2021/01/27 03:08:23;;;;;;;9.00;7.60;;;;;;;1.31;70.56;98929.00;1780421;79;21069;-71
2021/01/27 03:11:15;;;;;;;13.87;9.07;;;;;;;1.30;70.57;98927.37;1776730;80;21167;-70
2021/01/27 03:13:45;;;;;;;9.38;6.60;;;;;;;1.28;70.63;98920.98;1757610;81;21130;-71
2021/01/27 03:16:39;;;;;;;12.40;7.90;;;;;;;1.27;70.69;98912.73;1779406;80;21164;-71
2021/01/27 03:19:13;;;;;;;;;;;;;;;1.26;70.78;98930.14;1812878;78;21202;-69
2021/01/27 03:21:47;;;;;;;10.43;7.62;;;;;;;1.27;70.90;98928.62;1831931;78;20259;-68
2021/01/27 03:24:22;;;;;;;10.87;7.33;;;;;;;1.26;70.94;98924.34;1831534;78;21114;-70
2021/01/27 03:27:17;;;;;;;12.40;8.60;;;;;;;1.25;70.94;98923.20;1829038;78;21028;-70
2021/01/27 03:29:55;;;;;;;11.73;7.80;;;;;;;1.23;71.06;98917.33;1825243;78;21103;-70
2021/01/27 03:32:52;;;;;;;15.10;8.40;;;;;;;1.22;71.13;98909.08;1829240;78;22888;-70
2021/01/27 03:35:34;;;;;;;12.13;7.87;;;;;;;1.19;71.15;98910.32;1831087;78;22034;-67
2021/01/27 03:38:13;;;;;;;18.67;11.30;;;;;;;1.17;71.26;98891.16;1830824;78;21070;-71
2021/01/27 03:40:44;;;;;;;16.83;9.57;;;;;;;1.16;71.36;98884.74;1827732;78;21133;-73
2021/01/27 03:43:17;;;;;;;18.47;10.53;;;;;;;1.14;71.44;98892.10;1799203;78;21138;-72
2021/01/27 03:45:48;;;;;;;13.97;9.70;;;;;;;1.12;71.49;98891.48;1823274;78;22128;-70
2021/01/27 03:48:27;;;;;;;11.00;7.90;;;;;;;1.12;71.56;98892.80;1807688;78;22292;-70
2021/01/27 03:50:57;;;;;;;10.82;8.75;;;;;;;1.12;71.57;98892.30;1799517;78;21642;-71
2021/01/27 03:53:25;;;;;;;13.03;8.50;;;;;;;1.11;71.62;98889.34;1791117;78;21140;-70
2021/01/27 03:56:16;;;;;;;12.50;8.80;;;;;;;1.12;71.67;98892.30;1803901;78;21086;-70
2021/01/27 03:58:45;;;;;;;15.07;8.70;;;;;;;1.10;71.69;98893.03;1823864;78;21215;-69
2021/01/27 04:01:17;;;;;;;16.42;11.50;;;;;;;1.07;71.76;98900.56;1830506;78;21126;-70
2021/01/27 04:03:45;;;;;;;14.28;9.55;;;;;;;1.07;71.83;98907.18;1831579;78;20999;-71
2021/01/27 04:06:12;;;;;;;12.23;7.63;;;;;;;1.07;71.94;98901.88;1823884;78;21007;-71
2021/01/27 04:08:40;;;;;;;10.37;7.53;;;;;;;1.09;71.96;98911.27;1829205;78;21114;-70
2021/01/27 04:11:07;;;;;;;17.60;9.40;;;;;;;1.08;71.98;98921.55;1823026;78;21887;-69
2021/01/27 04:13:36;;;;;;;11.67;8.67;;;;;;;1.04;72.06;98919.02;1798974;78;21170;-69
2021/01/27 04:16:05;;;;;;;12.43;8.63;;;;;;;1.03;72.20;98925.83;1776708;79;21575;-70
2021/01/27 04:18:32;;;;;;;12.77;7.73;;;;;;;1.03;72.28;98924.00;1820457;77;20994;-71
2021/01/27 04:21:00;;;;;;;10.05;7.45;;;;;;;1.02;72.30;98925.01;1771953;79;20946;-70
2021/01/27 04:23:27;;;;;;;11.55;8.33;;;;;;;1.03;72.39;98914.73;1770534;79;21205;-69
2021/01/27 04:25:54;;;;;;;11.07;8.40;;;;;;;1.05;72.41;98920.64;1776464;79;21026;-70
2021/01/27 04:28:22;;;;;;;16.00;9.47;;;;;;;1.07;72.47;98914.61;1773331;79;21201;-68
2021/01/27 04:30:49;;;;;;;14.23;9.67;;;;;;;1.09;72.45;98915.73;1790626;79;21634;-69
2021/01/27 04:33:18;;;;;;;17.90;10.80;;;;;;;1.10;72.45;98917.38;1767827;81;21105;-69
2021/01/27 04:35:45;;;;;;;14.55;9.38;;;;;;;1.11;72.49;98918.97;1776522;79;22194;-70
2021/01/27 04:38:13;;;;;;;16.00;10.57;;;;;;;1.11;72.48;98925.59;1768436;79;22254;-69
2021/01/27 04:40:43;;;;;;;13.28;9.35;;;;;;;1.08;72.51;98926.84;1789240;79;21145;-69
2021/01/27 04:43:23;;;;;;;13.13;10.18;;;;;;;1.09;72.55;98932.95;1799344;78;21710;-69
2021/01/27 04:46:17;;;;;;;14.40;9.20;;;;;;;1.08;72.61;98940.58;1799912;79;21567;-70
2021/01/27 04:49:18;;;;;;;15.33;10.83;;;;;;;1.07;72.66;98937.12;1790478;79;21117;-67
2021/01/27 04:52:17;;;;;;;12.33;9.10;;;;;;;1.06;72.77;98932.84;1788758;79;21152;-68
2021/01/27 04:55:18;;;;;;;13.03;10.20;;;;;;;1.07;72.89;98936.30;1792912;77;21157;-69
2021/01/27 04:58:00;;;;;;;12.00;8.70;;;;;;;1.08;72.98;98936.61;1798302;79;21180;-70
2021/01/27 05:01:12;;;;;;;13.50;10.37;;;;;;;1.08;73.03;98930.80;1790789;79;21117;-70
2021/01/27 05:03:51;;;;;;;13.97;9.17;;;;;;;1.08;73.10;98931.31;1799351;79;21173;-68
2021/01/27 05:06:28;;;;;;;14.20;9.10;;;;;;;1.08;73.17;98929.48;1787101;79;21161;-69
2021/01/27 05:09:16;;;;;;;18.97;10.93;;;;;;;1.06;73.28;98917.45;1799529;79;21132;-68
2021/01/27 05:11:44;;;;;;;14.03;9.90;;;;;;;1.05;73.35;98934.39;1768790;79;21119;-71
2021/01/27 05:14:14;;;;;;;12.00;10.23;;;;;;;1.07;73.45;98929.69;1799420;79;21672;-69
2021/01/27 05:16:42;;;;;;;14.63;11.40;;;;;;;1.08;73.43;98937.42;1799446;79;21207;-70
2021/01/27 05:19:10;;;;;;;16.37;12.13;;;;;;;1.08;73.50;98937.42;1742762;79;21155;-70
2021/01/27 05:21:40;;;;;;;16.63;11.23;;;;;;;1.10;73.57;98934.08;1770434;79;21121;-69
2021/01/27 05:24:08;;;;;;;16.93;11.70;;;;;;;1.14;73.57;98935.79;1799371;79;21002;-71
2021/01/27 05:26:44;;;;;;;14.57;10.73;;;;;;;1.16;73.54;98938.52;1802197;79;21558;-69
2021/01/27 05:29:45;;;;;;;15.23;11.33;;;;;;;1.19;73.45;98946.06;1801341;79;21211;-72
2021/01/27 05:32:21;;;;;;;23.27;16.80;;;;;;;1.24;73.51;98955.53;1767579;81;21176;-70
2021/01/27 05:34:54;;;;;;;14.83;10.90;;;;;;;1.28;73.39;98962.54;1768189;81;21617;-70
2021/01/27 05:37:32;;;;;;;18.92;10.88;;;;;;;1.31;73.33;98960.79;1768416;81;21028;-70
2021/01/27 05:40:23;;;;;;;14.23;10.57;;;;;;;1.34;73.27;98966.20;1776050;79;21079;-70
2021/01/27 05:42:50;;;;;;;23.13;14.27;;;;;;;1.34;73.18;98967.02;1768536;79;22520;-69
2021/01/27 05:45:38;;;;;;;17.37;11.77;;;;;;;1.35;73.29;98969.12;1768202;81;21124;-70
2021/01/27 05:51:11;;;;;;;15.93;11.97;;;;;;;1.44;73.12;98972.66;1834304;76;22759;-70
2021/01/27 05:53:39;;;;;;;16.85;11.20;;;;;;;1.41;73.17;98977.57;1785121;80;21555;-70
2021/01/27 05:56:16;;;;;;;18.77;14.60;;;;;;;1.46;73.19;98971.14;1784922;79;20999;-71
2021/01/27 05:59:06;;;;;;;18.80;11.85;;;;;;;1.47;73.13;98970.94;1786676;79;20971;-71
2021/01/27 06:01:42;;;;;;;16.95;12.60;;;;;;;1.49;73.12;98964.91;1789623;79;21006;-69
2021/01/27 06:04:15;;;;;;;21.50;13.68;;;;;;;1.53;73.10;98965.32;1785155;80;20978;-70
2021/01/27 06:07:01;;;;;;;18.33;12.67;;;;;;;1.57;73.07;98958.06;1785024;80;21137;-70
2021/01/27 06:09:41;;;;;;;26.45;13.30;;;;;;;1.62;73.03;98956.92;1796726;79;22051;-71
2021/01/27 06:12:24;;;;;;;17.95;13.03;;;;;;;1.64;72.80;98962.00;1786430;80;21002;-70
2021/01/27 06:15:09;;;;;;;20.65;12.50;;;;;;;1.60;72.80;98961.61;1785132;80;20987;-69
2021/01/27 06:17:47;;;;;;;16.85;12.95;;;;;;;1.62;72.73;98957.44;1785054;80;21117;-70
2021/01/27 06:20:33;;;;;;;21.52;13.38;;;;;;;1.63;72.85;98959.06;1799500;79;20979;-71
2021/01/27 06:23:27;;;;;;;17.40;13.83;;;;;;;1.67;72.84;98972.20;1798092;79;22071;-71
2021/01/27 06:25:57;;;;;;;;;;;;;;;1.71;72.82;98972.89;1787611;79;21106;-70
2021/01/27 06:28:36;;;;;;;18.73;12.43;;;;;;;1.73;72.63;98985.41;1792897;79;20141;-68
2021/01/27 06:31:12;;;;;;;23.32;14.13;;;;;;;1.74;72.59;98992.34;1816821;79;20987;-69
2021/01/27 06:34:00;;;;;;;18.92;12.75;;;;;;;1.72;72.57;98982.47;1784320;80;21145;-71
2021/01/27 06:37:04;;;;;;;18.62;11.53;;;;;;;1.70;72.54;98978.39;1784458;80;21197;-70
2021/01/27 06:40:02;;;;;;;17.85;12.10;;;;;;;1.66;72.54;98979.84;1754572;80;21168;-69
2021/01/27 06:42:58;;;;;;;20.00;12.25;;;;;;;1.61;72.66;98982.30;1753837;81;21250;-69
2021/01/27 06:45:47;;;;;;;23.77;16.35;;;;;;;1.57;72.83;98983.23;1753904;81;21014;-69
2021/01/27 06:48:38;;;;;;;18.30;11.88;;;;;;;1.55;72.96;98983.95;1772008;80;21550;-69
2021/01/27 06:51:34;;;;;;;34.98;15.63;;;;;;;1.55;73.11;98985.78;1750424;81;22665;-74
2021/01/27 06:54:53;;;;;;;24.77;14.38;;;;;;;1.51;73.24;98985.39;1760737;81;21063;-68
2021/01/27 06:57:29;;;;;;;31.00;14.53;;;;;;;1.50;73.31;98982.44;1770672;79;21180;-71
2021/01/27 07:00:20;;;;;;;23.38;12.82;;;;;;;1.48;73.38;98982.35;1718596;79;21172;-69
2021/01/27 07:03:31;;;;;;;22.85;12.45;;;;;;;1.48;73.48;98978.38;1792799;79;21152;-71
2021/01/27 07:06:47;;;;;;;22.67;14.67;;;;;;;1.51;73.55;98970.00;1847180;76;22696;-68
2021/01/27 07:09:29;;;;;;;21.77;12.87;;;;;;;1.47;73.67;98971.45;1808114;79;20928;-69
2021/01/27 07:12:25;;;;;;;19.37;14.90;;;;;;;1.47;73.62;98979.39;1800583;79;21174;-70
2021/01/27 07:15:14;;;;;;;19.65;13.93;;;;;;;1.50;73.70;98965.72;1773209;79;21050;-70
2021/01/27 07:18:07;;;;;;;20.43;13.40;;;;;;;1.49;73.65;98960.92;1784961;80;21015;-67
2021/01/27 07:20:41;;;;;;;22.25;11.90;;;;;;;1.52;73.74;98965.83;1796434;79;20960;-69
2021/01/27 07:23:51;;;;;;;21.60;15.25;;;;;;;1.52;73.74;98965.83;1780491;80;20988;-70
2021/01/27 07:26:28;;;;;;;21.95;14.30;;;;;;;1.52;73.81;98971.13;1784634;80;23470;-70
2021/01/27 07:29:07;;;;;;;22.25;16.27;;;;;;;1.52;73.88;98967.66;1785816;79;21014;-70
2021/01/27 07:31:44;;;;;;;23.55;15.13;;;;;;;1.53;73.89;98979.89;1779206;80;21051;-69
2021/01/27 07:34:19;;;;;;;22.87;14.38;;;;;;;1.53;73.99;98982.03;1781687;80;21185;-70
2021/01/27 07:37:22;;;;;;;19.10;12.58;;;;;;;1.59;74.02;98979.85;1783871;80;21172;-69
2021/01/27 07:40:13;;;;;;;18.52;11.83;;;;;;;1.61;73.98;98971.70;1776426;80;21202;-68
2021/01/27 07:43:18;;;;;;;24.27;15.03;;;;;;;1.61;73.93;98973.84;1753510;80;21121;-70
2021/01/27 07:45:51;;;;;;;25.43;15.85;;;;;;;1.61;73.97;98981.80;1752239;81;21169;-68
2021/01/27 07:48:43;;;;;;;36.23;17.37;;;;;;;1.62;74.00;98977.31;1752436;81;21487;-68
2021/01/27 07:51:22;;;;;;;20.68;11.83;;;;;;;1.63;74.04;98972.32;1776233;80;21185;-69
2021/01/27 07:54:01;;;;;;;21.57;14.55;;;;;;;1.62;74.06;98964.06;1752342;81;21365;-70
2021/01/27 07:56:52;;;;;;;20.52;13.93;;;;;;;1.58;74.10;98970.81;1751822;81;21189;-70
2021/01/27 07:59:50;;;;;;;20.12;13.55;;;;;;;1.56;74.32;98974.16;1752255;81;21566;-70
2021/01/27 08:02:26;;;;;;;21.05;12.88;;;;;;;1.57;74.34;98977.94;1752905;80;21007;-69
2021/01/27 08:04:57;;;;;;;26.25;14.78;;;;;;;1.54;74.43;98975.69;1752295;80;21477;-71
2021/01/27 08:07:32;;;;;;;25.12;13.65;;;;;;;1.53;74.50;98973.27;1752398;81;21528;-68
2021/01/27 08:10:25;;;;;;;24.30;16.75;;;;;;;1.55;74.68;98977.83;1759991;80;21575;-69
2021/01/27 08:12:56;;;;;;;22.22;13.85;;;;;;;1.54;74.75;98975.69;1762153;80;21290;-67
2021/01/27 08:15:32;;;;;;;23.95;15.03;;;;;;;1.57;74.72;98970.50;1752232;81;21169;-68
2021/01/27 08:18:16;;;;;;;20.75;13.65;;;;;;;1.57;74.73;98972.64;1751853;81;21623;-70
2021/01/27 08:20:46;;;;;;;19.27;11.97;;;;;;;1.58;74.79;98976.89;1768614;80;21353;-70
2021/01/27 08:23:33;;;;;;;27.27;16.00;;;;;;;1.60;74.74;98984.14;1759311;79;21125;-68
2021/01/27 08:26:08;;;;;;;23.25;13.10;;;;;;;1.60;74.75;98981.99;1751917;81;21024;-68
2021/01/27 08:28:41;;;;;;;20.02;12.98;;;;;;;1.59;74.70;98975.06;1751772;81;21101;-69
2021/01/27 08:31:18;;;;;;;20.97;13.43;;;;;;;1.58;74.77;98980.08;1780948;80;21134;-70
2021/01/27 08:33:54;;;;;;;20.00;13.58;;;;;;;1.54;74.78;98978.34;1782677;80;21359;-68
2021/01/27 08:36:33;;;;;;;18.92;12.63;;;;;;;1.52;74.76;98983.05;1782634;80;20991;-70
2021/01/27 08:39:10;;;;;;;20.97;13.13;;;;;;;1.53;74.84;98985.19;1782460;80;20963;-70
2021/01/27 08:42:01;;;;;;;24.00;14.03;;;;;;;1.50;74.99;98978.45;1752276;80;21142;-70
2021/01/27 08:44:39;;;;;;;19.80;13.15;;;;;;;1.49;75.03;98983.45;1751858;80;21168;-68
2021/01/27 08:47:24;;;;;;;20.12;14.53;;;;;;;1.46;75.16;98973.28;1751733;81;21244;-71
2021/01/27 08:49:59;;;;;;;21.93;15.30;;;;;;;1.47;75.27;98974.91;1761013;80;20996;-70
2021/01/27 08:52:35;;;;;;;23.40;15.85;;;;;;;1.46;75.42;98965.84;1751591;81;20999;-70
2021/01/27 08:55:31;;;;;;;23.95;16.57;;;;;;;1.47;75.53;98961.67;1751220;81;21125;-70
2021/01/27 08:58:38;;;;;;;20.97;13.80;;;;;;;1.51;75.58;98961.55;1733770;82;21289;-70
2021/01/27 09:01:10;;;;;;;20.32;13.03;;;;;;;1.51;75.36;98964.70;1755245;80;22315;-70
2021/01/27 09:03:49;;;;;;;19.95;14.20;;;;;;;1.50;75.32;98968.37;1782631;80;21595;-71
2021/01/27 09:06:30;;;;;;;21.85;13.30;;;;;;;1.49;75.36;98966.23;1793611;79;21117;-70
2021/01/27 09:09:21;;;;;;;20.92;13.28;;;;;;;1.51;75.36;98964.70;1786016;79;20991;-71
2021/01/27 09:12:08;;;;;;;22.82;15.95;;;;;;;1.50;75.34;98967.86;1797166;79;21003;-70
2021/01/27 09:14:35;;;;;;;17.27;12.60;;;;;;;1.47;75.11;98964.31;1797369;79;21254;-71
2021/01/27 09:17:05;;;;;;;17.23;12.20;;;;;;;1.48;74.93;98960.66;1796857;79;21006;-70
2021/01/27 09:19:36;;;;;;;18.95;14.03;;;;;;;1.48;75.08;98951.38;1771092;79;21109;-70
2021/01/27 09:22:23;;;;;;;20.88;13.03;;;;;;;1.51;74.90;98966.03;1765656;81;21113;-69
2021/01/27 09:24:52;;;;;;;15.18;10.20;;;;;;;1.52;74.73;98958.39;1763978;81;29181;-68
2021/01/27 09:27:26;;;;;;;19.73;12.70;;;;;;;1.53;74.40;98958.19;1747813;81;21219;-72
2021/01/27 09:30:04;;;;;;;22.40;13.48;;;;;;;1.53;74.15;98962.16;1761959;81;21169;-70
2021/01/27 09:32:32;;;;;;;21.30;13.88;;;;;;;1.52;74.06;98957.87;1763440;81;21196;-70
2021/01/27 09:35:21;;;;;;;18.85;11.63;;;;;;;1.56;74.07;98958.27;1750850;81;21625;-68
2021/01/27 09:38:01;;;;;;;15.57;10.47;;;;;;;1.61;74.17;98951.32;1734363;81;21663;-70
2021/01/27 09:40:35;;;;;;;20.45;12.90;;;;;;;1.66;74.03;98956.80;1701918;83;21999;-71
2021/01/27 09:43:08;;;;;;;13.83;10.43;;;;;;;1.70;73.64;98950.56;1732168;82;21560;-70
2021/01/27 09:45:36;;;;;;;17.57;11.75;;;;;;;1.73;73.19;98951.45;1750067;81;21133;-71
2021/01/27 09:48:05;;;;;;;12.60;8.73;;;;;;;1.78;72.89;98954.80;1721285;82;21163;-69
2021/01/27 09:50:35;;;;;;;13.75;9.83;;;;;;;1.79;72.59;98949.80;1724012;83;21142;-70
2021/01/27 09:53:04;;;;;;;14.53;9.50;;;;;;;1.77;72.00;98961.14;1694125;83;21055;-71
2021/01/27 09:55:31;;;;;;;16.20;9.98;;;;;;;1.76;72.05;98959.00;1743404;81;21204;-70
2021/01/27 09:58:04;;;;;;;19.20;12.47;;;;;;;1.77;72.20;98965.94;1739883;82;21166;-70
2021/01/27 10:00:37;;;;;;;11.83;9.38;;;;;;;1.82;72.33;98960.00;1730570;81;21161;-68
2021/01/27 10:03:32;;;;;;;16.85;10.38;;;;;;;1.88;72.04;98955.16;1742751;81;21158;-70
2021/01/27 10:06:00;;;;;;;19.75;12.55;;;;;;;1.88;71.44;98957.80;1720389;81;21518;-69
2021/01/27 10:08:37;;;;;;;11.38;7.50;;;;;;;1.85;71.49;98944.48;1736969;82;21744;-70
2021/01/27 10:11:11;;;;;;;15.65;11.05;;;;;;;1.85;71.24;98947.64;1737804;82;21018;-69
2021/01/27 10:13:40;;;;;;;18.60;11.22;;;;;;;1.85;71.01;98935.20;1741216;82;21141;-70
2021/01/27 10:16:12;;;;;;;15.48;9.43;;;;;;;1.80;70.46;98943.48;1723593;82;21768;-70
2021/01/27 10:18:42;;;;;;;;;;;;;;;1.75;70.69;98935.66;1686164;83;21232;-71
2021/01/27 10:21:13;;;;;;;13.75;8.68;;;;;;;1.75;71.16;98931.68;1679882;85;20278;-68
2021/01/27 10:23:47;;;;;;;13.78;9.78;;;;;;;1.79;71.07;98922.78;1679850;85;21057;-69
2021/01/27 10:26:41;;;;;;;10.45;7.75;;;;;;;1.78;70.36;98934.91;1689736;83;21141;-70
2021/01/27 10:29:19;;;;;;;14.98;9.43;;;;;;;1.78;70.38;98922.48;1681845;83;21171;-70
2021/01/27 10:31:54;;;;;;;12.58;8.43;;;;;;;1.80;70.74;98933.69;1679846;85;21238;-69
2021/01/27 10:34:40;;;;;;;;;;;;;;;1.82;70.68;98927.69;1688590;83;21594;-70
2021/01/27 10:37:30;;;;;;;13.80;10.20;;;;;;;1.85;70.53;98923.78;1708688;82;20160;-69
2021/01/27 10:40:26;;;;;;;14.80;10.40;;;;;;;1.85;70.47;98926.43;1706838;84;21110;-70
2021/01/27 10:43:01;;;;;;;30.15;22.25;;;;;;;1.82;70.27;98930.33;1704322;83;21177;-69
2021/01/27 10:45:42;;;;;;;20.75;15.28;;;;;;;1.82;70.14;98925.03;1707408;82;22163;-69
2021/01/27 10:48:18;;;;;;;14.23;9.38;;;;;;;1.83;70.18;98924.48;1706808;84;21196;-70
2021/01/27 10:51:04;;;;;;;12.30;8.75;;;;;;;1.87;70.04;98924.39;1706768;83;21649;-70
2021/01/27 10:53:37;;;;;;;15.93;10.55;;;;;;;1.87;69.36;98923.85;1707501;82;21153;-69
2021/01/27 10:56:05;;;;;;;14.58;8.53;;;;;;;1.84;69.51;98924.29;1720084;82;21628;-69
2021/01/27 10:58:32;;;;;;;13.53;8.03;;;;;;;1.85;69.55;98931.73;1712253;82;22403;-71
2021/01/27 11:01:00;;;;;;;15.08;10.28;;;;;;;1.84;69.49;98915.01;1711860;82;21161;-69
2021/01/27 11:03:27;;;;;;;17.75;9.38;;;;;;;1.77;69.71;98910.27;1712598;82;21562;-69
2021/01/27 11:05:55;;;;;;;21.42;13.08;;;;;;;1.74;69.92;98918.13;1696957;82;21645;-67
2021/01/27 11:08:29;;;;;;;16.75;10.50;;;;;;;1.72;70.04;98918.86;1696849;83;21132;-71
2021/01/27 11:10:58;;;;;;;20.02;13.20;;;;;;;1.68;69.64;98914.98;1714458;82;22198;-67
2021/01/27 11:13:26;;;;;;;20.40;11.90;;;;;;;1.66;69.55;98914.40;1731905;82;21171;-66
2021/01/27 11:15:54;;;;;;;13.65;9.83;;;;;;;1.66;69.82;98908.28;1727830;82;21155;-70
2021/01/27 11:18:22;;;;;;;16.17;10.50;;;;;;;1.69;69.88;98902.04;1696548;84;21008;-69
2021/01/27 11:20:51;;;;;;;14.98;10.85;;;;;;;1.74;69.84;98902.22;1662806;85;21158;-67
2021/01/27 11:23:21;;;;;;;16.15;10.45;;;;;;;1.78;69.85;98903.11;1673843;85;21439;-68
2021/01/27 11:25:49;;;;;;;11.48;7.70;;;;;;;1.80;69.75;98900.56;1682259;85;21153;-67
2021/01/27 11:28:17;;;;;;;16.17;8.53;;;;;;;1.81;69.49;98900.05;1673377;85;21152;-67
2021/01/27 11:30:44;;;;;;;10.45;6.95;;;;;;;1.85;69.52;98902.06;1669500;85;21101;-69
2021/01/27 11:33:12;;;;;;;15.78;8.93;;;;;;;1.82;69.13;98898.52;1658188;85;21185;-68
2021/01/27 11:35:40;;;;;;;13.22;7.90;;;;;;;1.79;69.26;98898.11;1655826;85;21288;-70
2021/01/27 11:38:07;;;;;;;12.15;8.28;;;;;;;1.75;69.11;98902.52;1671004;85;21169;-67
2021/01/27 11:40:38;;;;;;;12.55;7.25;;;;;;;1.77;69.31;98898.85;1700254;83;21137;-70
2021/01/27 11:43:05;;;;;;;9.40;6.97;;;;;;;1.76;68.90;98899.36;1711530;82;21653;-71
2021/01/27 11:45:33;;;;;;;10.48;6.28;;;;;;;1.72;68.83;98894.19;1671351;85;21221;-71
2021/01/27 11:48:02;;;;;;;13.22;8.53;;;;;;;1.74;68.55;98904.05;1706964;83;21312;-70
2021/01/27 11:50:30;;;;;;;11.53;7.85;;;;;;;1.74;68.51;98901.41;1719285;83;21022;-69
2021/01/27 11:52:58;;;;;;;10.90;7.03;;;;;;;1.71;68.34;98905.30;1700699;83;21068;-68
2021/01/27 11:55:26;;;;;;;12.98;9.00;;;;;;;1.68;68.08;98894.29;1671370;85;21234;-70
2021/01/27 11:57:53;;;;;;;12.78;8.70;;;;;;;1.62;68.14;98897.30;1707569;83;21156;-69
2021/01/27 12:00:22;;;;;;;14.53;8.88;;;;;;;1.58;68.45;98889.45;1731149;82;23372;-67
2021/01/27 12:02:50;;;;;;;10.50;6.72;;;;;;;1.63;68.68;98888.84;1728015;82;21088;-72
2021/01/27 12:05:18;;;;;;;9.63;7.45;;;;;;;1.69;68.59;98900.71;1708138;82;21630;-70
2021/01/27 12:07:46;;;;;;;15.18;7.35;;;;;;;1.73;68.44;98895.28;1681129;84;21188;-86
2021/01/27 12:10:15;;;;;;;9.13;6.87;;;;;;;1.77;68.56;98889.58;1711190;83;21180;-69
2021/01/27 12:12:42;;;;;;;10.50;6.28;;;;;;;1.84;68.68;98892.98;1698745;83;21212;-69
2021/01/27 12:15:11;;;;;;;12.43;8.55;;;;;;;1.90;68.57;98891.63;1703554;84;21200;-68
2021/01/27 12:17:41;;;;;;;14.30;6.72;;;;;;;1.98;68.49;98886.58;1713350;82;21102;-67
2021/01/27 12:20:11;;;;;;;13.58;7.53;;;;;;;1.98;67.82;98875.97;1690044;83;21136;-71
2021/01/27 12:22:38;;;;;;;16.90;9.83;;;;;;;1.97;67.93;98882.29;1718686;82;21170;-69